首页
METAR-TAF:

METAR-TAF

机场 :

贝尔法斯特国际机场

贝尔法斯特, 北爱尔兰

纬度: 54-39N, 经度: 006-13W, 海拔: 81米

当前天气观测

该预报发布于25分钟前的07:20 UTC
风速5节,风向
温度 16°C
湿度 94%
气压 1017 hPa
能見度: 6000
多云层高于500英尺

METAR: EGAA 150720Z 08005KT 6000 BKN005 16/15 Q1017

时间: 08:45 (07:45 UTC)

预报

该预报发布于39分钟前的07:06 UTC
预报有效从15日的 07点(UTC)到 16日的 06点(UTC)
风速6节,风向
能見度: 4000
多云层高于400英尺
轻雾
成为
从 15日的 07点(UTC)到 15日的 11点(UTC)
能见度10公里或以上
少量云层高于3000英尺
几率 30% :
短暂存在
从 15日的 07点(UTC)到 15日的 08点(UTC)
多云层高于100英尺
几率 30%
从 15日的 11点(UTC)到 15日的 13点(UTC)
多云层高于1400英尺
几率 30% :
短暂存在
从 16日的 02点(UTC)到 16日的 06点(UTC)
能見度: 3000
多云层高于100英尺
轻雾

TAF: EGAA 150706Z 1507/1606 09006KT 4000 BR BKN004 BECMG 1507/1511 9999 NSW FEW030 PROB30 TEMPO 1507/1508 BKN001 PROB30 1511/1513 BKN014 PROB30 TEMPO 1602/1606 3000 BR BKN001

超过4000个机场的气象观测和天气预报(METAR&TAF报告)。

可查询的气象台以黄色和红色小点在地图上表示。

将鼠标移到小点上方,可查看气象台名称。

然后点击查看天气观测和预报。

如需切换地图:点击带黑十字的绿色按钮放大地图;点击带横线的绿色按钮缩小地图;或者点击绿色箭头查看邻近地区的地图。


METAR-TAF: